createdAt,value
2023-05-13T05:20:45.038Z,8.22
2023-05-13T05:21:46.766Z,8.34
2023-05-13T07:40:47.226Z,11.31
2023-05-13T07:42:56.967Z,11.11
2023-05-13T08:25:32.013Z,11.56
2023-05-13T08:27:39.716Z,11.79
2023-05-13T08:28:42.491Z,11.86
2023-05-13T08:30:48.142Z,11.75
2023-05-13T08:31:50.460Z,11.79
2023-05-13T08:32:51.911Z,11.93
2023-05-13T08:34:57.768Z,12.00
2023-05-13T08:37:16.981Z,12.03
2023-05-13T08:45:19.368Z,12.03
2023-05-13T08:47:56.698Z,11.33
2023-05-13T08:57:33.787Z,12.23
2023-05-13T08:59:48.079Z,12.15
2023-05-13T09:00:50.483Z,12.36
2023-05-13T09:01:52.871Z,12.40
2023-05-13T09:04:04.398Z,12.41
2023-05-13T09:05:07.568Z,12.36
2023-05-13T09:06:09.111Z,12.39
2023-05-13T09:08:26.111Z,12.52
2023-05-13T09:10:51.827Z,12.36
2023-05-13T09:13:02.479Z,12.42
2023-05-13T09:25:56.090Z,12.53
2023-05-13T09:28:15.330Z,12.63
2023-05-13T09:30:35.756Z,12.53
2023-05-13T09:33:10.198Z,12.76
2023-05-13T09:35:37.151Z,12.73
2023-05-13T09:38:00.668Z,12.58
2023-05-13T09:40:26.864Z,12.64
2023-05-13T10:00:42.144Z,12.26
2023-05-13T10:02:57.539Z,12.37
2023-05-13T10:05:23.023Z,12.55
2023-05-13T10:06:26.705Z,12.73
2023-05-13T10:08:40.122Z,12.79
2023-05-13T10:09:46.164Z,12.97
2023-05-13T10:10:50.074Z,12.92
2023-05-13T10:11:51.771Z,13.11
2023-05-13T10:12:53.662Z,13.14
2023-05-13T10:14:03.205Z,13.23
2023-05-13T10:15:05.875Z,13.20
2023-05-13T10:16:08.025Z,13.28
2023-05-13T10:17:10.046Z,13.38
2023-05-13T10:18:11.558Z,13.43
2023-05-13T10:19:13.518Z,13.20
2023-05-13T10:20:15.300Z,13.39
2023-05-13T10:21:16.993Z,13.44
2023-05-13T10:22:29.573Z,13.48
2023-05-13T10:23:32.602Z,13.34
2023-05-13T10:24:37.219Z,13.25
2023-05-13T10:25:41.635Z,13.25
2023-05-13T10:26:44.220Z,13.36
2023-05-13T10:27:45.770Z,13.44
2023-05-13T10:28:48.356Z,13.49
2023-05-13T10:29:54.277Z,13.37
2023-05-13T10:30:55.683Z,13.37
2023-05-13T10:31:57.377Z,13.29
2023-05-13T10:32:59.607Z,13.39
2023-05-13T10:34:01.539Z,13.46
2023-05-13T10:35:09.729Z,13.59
2023-05-13T10:36:55.505Z,13.65
2023-05-13T10:38:05.635Z,13.64
2023-05-13T10:39:17.598Z,13.71
2023-05-13T10:40:37.620Z,13.85
2023-05-13T10:41:54.398Z,14.10
2023-05-13T10:43:22.775Z,13.92
2023-05-13T10:44:24.364Z,14.21
2023-05-13T10:45:26.673Z,14.01
2023-05-13T10:46:28.115Z,14.17
2023-05-13T10:47:33.489Z,14.34
2023-05-13T10:48:49.700Z,14.53
2023-05-13T10:49:54.436Z,14.66
2023-05-13T10:51:03.592Z,14.61
2023-05-13T10:52:13.802Z,14.54
2023-05-13T10:53:22.023Z,14.78
2023-05-13T10:54:24.883Z,15.01
2023-05-13T10:55:26.894Z,14.69
2023-05-13T10:56:28.844Z,14.67
2023-05-13T10:57:36.381Z,14.71
2023-05-13T10:58:38.363Z,14.86
2023-05-13T11:00:13.149Z,15.02
2023-05-13T11:01:19.515Z,15.08
2023-05-13T11:02:23.343Z,15.05
2023-05-13T11:03:29.981Z,15.00
2023-05-13T11:04:31.596Z,15.00
2023-05-13T11:05:33.021Z,15.02
2023-05-13T11:06:42.956Z,15.04
2023-05-13T11:07:55.277Z,14.90
2023-05-13T11:08:57.013Z,14.74
2023-05-13T11:09:59.833Z,14.83
2023-05-13T11:11:01.373Z,14.76
2023-05-13T11:12:03.843Z,14.86
2023-05-13T11:13:14.115Z,14.91
2023-05-13T11:14:16.956Z,14.91
2023-05-13T11:15:22.100Z,14.81
2023-05-13T11:16:24.198Z,14.82
2023-05-13T11:17:26.128Z,14.75
2023-05-13T11:18:31.416Z,14.69
2023-05-13T11:19:36.146Z,14.70
2023-05-13T11:20:51.599Z,14.36
2023-05-13T11:21:57.376Z,14.40
2023-05-13T11:22:58.795Z,14.10
2023-05-13T11:24:05.297Z,14.23
2023-05-13T11:25:09.288Z,14.26
2023-05-13T11:26:17.177Z,14.26
2023-05-13T11:27:20.497Z,14.24
2023-05-13T11:28:53.239Z,14.17
2023-05-13T11:29:56.234Z,14.22
2023-05-13T11:31:15.930Z,14.07
2023-05-13T11:32:45.479Z,14.06
2023-05-13T11:34:07.081Z,14.07
2023-05-13T11:35:08.438Z,13.91
2023-05-13T11:36:10.010Z,13.77
2023-05-13T11:37:11.480Z,13.86
2023-05-13T11:38:24.287Z,13.74
2023-05-13T11:39:29.162Z,13.80
2023-05-13T11:40:32.782Z,13.85
2023-05-13T11:41:34.632Z,13.90
2023-05-13T11:42:37.071Z,13.91
2023-05-13T11:43:39.966Z,13.97
2023-05-13T11:44:46.873Z,13.75
2023-05-13T11:45:48.943Z,13.94
2023-05-13T11:46:51.424Z,14.04
2023-05-13T11:47:54.136Z,14.22
2023-05-13T11:48:55.658Z,14.13
2023-05-13T11:49:58.508Z,14.32
2023-05-13T11:51:00.164Z,14.54
2023-05-13T11:52:12.772Z,14.51
2023-05-13T11:53:19.829Z,14.25
2023-05-13T11:54:21.201Z,14.10
2023-05-13T11:55:33.971Z,14.27
2023-05-13T11:56:35.397Z,14.37
2023-05-13T11:57:37.003Z,14.58
2023-05-13T11:58:38.816Z,14.39
2023-05-13T11:59:47.899Z,14.51
2023-05-13T12:00:49.901Z,14.56
2023-05-13T12:02:01.722Z,14.75
2023-05-13T12:03:13.298Z,15.13
2023-05-13T12:04:14.797Z,14.67
2023-05-13T12:05:16.547Z,15.28
2023-05-13T12:06:18.393Z,15.60
2023-05-13T12:07:27.051Z,15.96
2023-05-13T12:08:28.468Z,16.00
2023-05-13T12:09:29.926Z,16.25
2023-05-13T12:10:31.377Z,14.81
2023-05-13T12:11:33.409Z,14.60
2023-05-13T12:12:38.643Z,15.32
2023-05-13T12:13:41.973Z,15.61
2023-05-13T12:14:47.286Z,15.32
2023-05-13T12:15:49.782Z,15.66
2023-05-13T12:16:51.686Z,15.58
2023-05-13T12:17:53.392Z,15.67
2023-05-13T12:19:07.819Z,15.70
2023-05-13T12:20:12.604Z,15.89
2023-05-13T12:21:15.910Z,16.06
2023-05-13T12:22:21.931Z,16.03
2023-05-13T12:23:23.513Z,15.79
2023-05-13T12:24:25.086Z,15.53
2023-05-13T12:25:40.013Z,15.87
2023-05-13T12:26:41.437Z,15.52
2023-05-13T12:27:43.155Z,15.30
2023-05-13T12:28:44.621Z,15.54
2023-05-13T12:29:46.103Z,15.86
2023-05-13T12:30:56.226Z,15.88
2023-05-13T12:32:05.945Z,15.92
2023-05-13T12:33:21.433Z,15.69
2023-05-13T12:34:34.089Z,16.11
2023-05-13T12:35:35.466Z,16.04
2023-05-13T12:36:38.482Z,15.92
2023-05-13T12:37:40.625Z,16.43
2023-05-13T12:39:03.594Z,16.64
2023-05-13T12:40:12.424Z,16.75
2023-05-13T12:41:13.870Z,16.71
2023-05-13T12:42:17.587Z,16.59
2023-05-13T12:43:19.738Z,16.76
2023-05-13T12:44:21.612Z,16.91
2023-05-13T12:45:23.475Z,16.98
2023-05-13T12:46:25.532Z,16.83
2023-05-13T12:47:27.038Z,16.48
2023-05-13T12:48:28.533Z,16.66
2023-05-13T12:49:29.935Z,16.91
2023-05-13T12:50:31.567Z,16.87
2023-05-13T12:51:33.929Z,16.57
2023-05-13T12:52:35.370Z,16.86
2023-05-13T12:53:36.813Z,17.08
2023-05-13T12:54:38.143Z,17.24
2023-05-13T12:55:40.157Z,17.55
2023-05-13T12:56:41.919Z,17.53
2023-05-13T12:57:43.449Z,17.51
2023-05-13T12:58:44.952Z,17.97
2023-05-13T12:59:46.718Z,18.20
2023-05-13T13:00:48.195Z,18.54
2023-05-13T13:01:49.926Z,18.53
2023-05-13T13:02:53.690Z,18.40
2023-05-13T13:03:56.719Z,18.54
2023-05-13T13:04:58.182Z,18.25
2023-05-13T13:05:59.656Z,17.91
2023-05-13T13:07:01.198Z,17.61
2023-05-13T13:08:05.345Z,17.51
2023-05-13T13:09:07.369Z,17.19
2023-05-13T13:10:09.409Z,16.72
2023-05-13T13:11:14.772Z,16.48
2023-05-13T13:12:16.423Z,15.85
2023-05-13T13:13:17.844Z,15.09
2023-05-13T13:14:19.486Z,15.41
2023-05-13T13:15:21.257Z,15.59
2023-05-13T13:16:23.125Z,15.63
2023-05-13T13:17:24.621Z,15.73
2023-05-13T13:18:26.633Z,15.77
2023-05-13T13:19:28.147Z,15.77
2023-05-13T13:20:29.622Z,15.83
2023-05-13T13:21:32.126Z,15.93
2023-05-13T13:22:34.652Z,16.04
2023-05-13T13:23:36.066Z,15.73
2023-05-13T13:24:37.524Z,15.43
2023-05-13T13:25:39.064Z,15.63
2023-05-13T13:26:40.737Z,15.92
2023-05-13T13:27:42.154Z,16.14
2023-05-13T13:28:43.546Z,16.11
2023-05-13T13:29:45.083Z,16.23
2023-05-13T13:30:47.213Z,16.19
2023-05-13T13:31:48.892Z,16.03
2023-05-13T13:32:50.353Z,15.76
2023-05-13T13:33:53.703Z,15.79
2023-05-13T13:34:55.174Z,15.89
2023-05-13T13:35:56.658Z,15.93
2023-05-13T13:36:58.303Z,16.02
2023-05-13T13:37:59.731Z,15.42
2023-05-13T13:39:01.334Z,15.65
2023-05-13T13:40:02.804Z,15.30
2023-05-13T13:41:04.186Z,15.35
2023-05-13T13:42:05.738Z,15.59
2023-05-13T13:43:08.416Z,15.91
2023-05-13T13:44:09.902Z,15.65
2023-05-13T13:45:12.490Z,15.22
2023-05-13T13:46:13.906Z,14.53
2023-05-13T13:47:15.633Z,14.81
2023-05-13T13:48:17.031Z,14.82
2023-05-13T13:49:23.734Z,14.87
2023-05-13T13:50:26.129Z,14.05
2023-05-13T13:51:27.533Z,13.52
2023-05-13T13:52:29.090Z,13.66
2023-05-13T13:53:30.474Z,14.50
2023-05-13T13:54:32.114Z,14.77
2023-05-13T13:55:33.525Z,15.01
2023-05-13T13:56:38.674Z,15.26
2023-05-13T13:57:40.215Z,15.54
2023-05-13T13:58:41.764Z,15.59
2023-05-13T13:59:43.188Z,15.17
2023-05-13T14:00:44.797Z,14.64
2023-05-13T14:01:46.811Z,14.64
2023-05-13T14:02:48.573Z,14.14
2023-05-13T14:03:50.824Z,14.69
2023-05-13T14:04:52.539Z,15.07
2023-05-13T14:05:55.140Z,15.25
2023-05-13T14:06:56.609Z,14.91
2023-05-13T14:07:58.677Z,14.21
2023-05-13T14:09:00.072Z,13.80
2023-05-13T14:10:01.777Z,14.33
2023-05-13T14:11:03.349Z,14.18
2023-05-13T14:12:05.281Z,14.08
2023-05-13T14:13:06.679Z,14.44
2023-05-13T14:14:08.529Z,14.63
2023-05-13T14:15:10.278Z,14.57
2023-05-13T14:16:11.623Z,14.61
2023-05-13T14:17:14.342Z,14.49
2023-05-13T14:18:15.934Z,14.62
2023-05-13T14:19:18.828Z,14.57
2023-05-13T14:20:22.202Z,14.96
2023-05-13T14:21:23.852Z,15.24
2023-05-13T14:22:25.322Z,15.21
2023-05-13T14:23:26.715Z,14.93
2023-05-13T14:24:28.164Z,14.89
2023-05-13T14:25:29.946Z,15.26
2023-05-13T14:26:31.751Z,16.30
2023-05-13T14:27:36.257Z,16.34
2023-05-13T14:28:37.710Z,15.86
2023-05-13T14:29:39.138Z,15.96
2023-05-13T14:30:40.611Z,16.61
2023-05-13T14:31:42.104Z,15.83
2023-05-13T14:32:48.288Z,15.89
2023-05-13T14:33:49.871Z,15.33
2023-05-13T14:34:51.326Z,16.09
2023-05-13T14:35:52.880Z,15.77
2023-05-13T14:36:54.355Z,15.37
2023-05-13T14:37:56.083Z,14.99
2023-05-13T14:38:57.640Z,14.49
2023-05-13T14:39:59.219Z,14.45
2023-05-13T14:41:00.841Z,14.34
2023-05-13T14:42:02.338Z,14.68
2023-05-13T14:43:03.802Z,15.13
2023-05-13T14:44:05.348Z,14.89
2023-05-13T14:45:07.576Z,15.29
2023-05-13T14:46:09.111Z,14.91
2023-05-13T14:47:10.868Z,14.86
2023-05-13T14:48:12.529Z,14.90
2023-05-13T14:49:13.956Z,15.47
2023-05-13T14:50:15.950Z,16.13
2023-05-13T14:51:17.703Z,16.67
2023-05-13T14:52:19.204Z,16.23
2023-05-13T14:53:20.603Z,15.87
2023-05-13T14:54:22.345Z,16.77
2023-05-13T14:55:23.742Z,17.12
2023-05-13T14:56:25.218Z,17.88
2023-05-13T14:57:26.732Z,17.17
2023-05-13T14:58:28.258Z,15.96
2023-05-13T14:59:29.820Z,15.51
2023-05-13T15:00:31.836Z,16.15
2023-05-13T15:01:34.030Z,16.72
2023-05-13T15:02:36.145Z,16.02
2023-05-13T15:03:37.974Z,16.21
2023-05-13T15:04:39.583Z,15.87
2023-05-13T15:05:44.629Z,15.99
2023-05-13T15:06:46.192Z,15.92
2023-05-13T15:07:47.700Z,16.03
2023-05-13T15:08:49.145Z,15.14
2023-05-13T15:09:50.577Z,14.51
2023-05-13T15:10:52.033Z,14.98
2023-05-13T15:11:53.459Z,14.67
2023-05-13T15:12:54.971Z,14.73
2023-05-13T15:13:56.475Z,14.60
2023-05-13T15:14:58.404Z,14.60
2023-05-13T15:15:59.796Z,14.61
2023-05-13T15:17:01.378Z,15.05
2023-05-13T15:18:03.135Z,14.71
2023-05-13T15:19:07.429Z,15.03
2023-05-13T15:20:09.389Z,14.97
2023-05-13T15:21:10.992Z,15.28
2023-05-13T15:22:12.846Z,15.11
2023-05-13T15:23:14.270Z,15.47
2023-05-13T15:24:15.732Z,15.68
2023-05-13T15:25:17.131Z,15.79
2023-05-13T15:26:19.016Z,15.47
2023-05-13T15:27:20.548Z,15.61
2023-05-13T15:28:22.148Z,15.49
2023-05-13T15:29:24.023Z,15.39
2023-05-13T15:30:25.463Z,15.31
2023-05-13T15:31:26.937Z,15.17
2023-05-13T15:32:28.386Z,14.48
2023-05-13T15:33:29.733Z,14.51
2023-05-13T15:36:05.684Z,14.21
2023-05-13T15:38:41.927Z,13.64
2023-05-13T15:41:21.797Z,13.34
2023-05-13T15:44:04.146Z,13.31
